Tenakee Springs, Alaska
Current Conditions -  °F | °C
As of 11:22 AM on Thursday 29 Jan 2015 (Local Time) from PAOH Reporting Station
Light Rain Light Rain  
Wind Chill: 27°   Ceiling: 1500
Heat Index: 36°   Visibility: 10mi
Dew Point: 36°   Wind: 13mph
Humidity: 100%   Direction: 90°E
Pressure: 30.17"   Gusts: NA
Location:  57.78°N, 135.22°W
Report Text: PAOH 292022Z AUTO 09011KT 10SM -RA FEW006 BKN015 OVC033 02/02 A3017 RMK AO2 TSNO BKN V SCT RAB00 P0000 $
Loading
Personal Weather Stations






























Interactive Weather Map New forecast layout! Learn more

10-Day Weather Forecast

Advertisements
Track Severe Weather on mobile